createdAt,value
2018-09-03T00:01:49.789Z,21.10
2018-09-03T00:04:20.229Z,21.20
2018-09-03T00:06:50.687Z,22.13
2018-09-03T00:09:21.421Z,23.67
2018-09-03T00:11:51.816Z,21.43
2018-09-03T00:14:23.514Z,21.40
2018-09-03T00:16:54.793Z,20.33
2018-09-03T00:19:25.537Z,19.67
2018-09-03T00:21:56.380Z,22.03
2018-09-03T00:24:28.368Z,21.30
2018-09-03T00:26:58.674Z,21.60
2018-09-03T00:29:28.999Z,21.00
2018-09-03T00:32:04.426Z,24.80
2018-09-03T00:34:40.175Z,21.33
2018-09-03T00:37:15.897Z,20.73
2018-09-03T00:39:52.804Z,20.63
2018-09-03T00:42:30.348Z,23.00
2018-09-03T00:46:06.823Z,20.33
2018-09-03T00:48:37.155Z,20.87
2018-09-03T00:51:08.634Z,21.33
2018-09-03T00:53:40.423Z,21.90
2018-09-03T00:56:10.776Z,21.13
2018-09-03T00:58:42.464Z,21.27
2018-09-03T01:01:13.341Z,20.47
2018-09-03T01:03:43.689Z,23.03
2018-09-03T01:06:14.175Z,20.33
2018-09-03T01:08:45.301Z,24.03
2018-09-03T01:11:15.645Z,19.73
2018-09-03T01:13:46.492Z,22.13
2018-09-03T01:16:21.591Z,19.57
2018-09-03T01:18:56.845Z,20.33
2018-09-03T01:21:30.929Z,22.93
2018-09-03T01:24:02.978Z,25.23
2018-09-03T01:26:34.403Z,21.13
2018-09-03T01:29:05.716Z,20.97
2018-09-03T01:31:36.077Z,20.73
2018-09-03T01:34:09.188Z,20.37
2018-09-03T01:36:41.547Z,24.20
2018-09-03T01:39:11.841Z,21.90
2018-09-03T01:41:43.184Z,21.07
2018-09-03T01:44:14.066Z,20.73
2018-09-03T01:46:45.834Z,22.63
2018-09-03T01:49:17.870Z,21.50
2018-09-03T01:51:49.533Z,20.50
2018-09-03T01:54:23.744Z,22.77
2018-09-03T01:56:54.158Z,22.07
2018-09-03T01:59:25.395Z,19.63
2018-09-03T02:01:56.625Z,20.60
2018-09-03T02:04:26.931Z,24.50
2018-09-03T02:06:58.126Z,22.93
2018-09-03T02:09:28.726Z,19.87
2018-09-03T02:11:59.589Z,20.47
2018-09-03T02:14:30.287Z,21.87
2018-09-03T02:17:00.638Z,20.70
2018-09-03T02:19:31.957Z,19.87
2018-09-03T02:22:02.392Z,25.10
2018-09-03T02:24:33.863Z,20.33
2018-09-03T02:27:07.209Z,23.43
2018-09-03T02:29:39.233Z,20.07
2018-09-03T02:32:09.574Z,21.83
2018-09-03T02:34:41.601Z,21.53
2018-09-03T02:37:13.568Z,27.23
2018-09-03T02:39:44.062Z,20.17
2018-09-03T02:42:15.266Z,22.40
2018-09-03T02:44:45.802Z,21.47
2018-09-03T02:47:17.166Z,23.23
2018-09-03T02:49:48.905Z,22.40
2018-09-03T02:52:21.575Z,21.77
2018-09-03T02:54:51.969Z,23.40
2018-09-03T02:57:23.846Z,21.33
2018-09-03T02:59:54.863Z,21.93
2018-09-03T03:02:25.487Z,21.83
2018-09-03T03:04:55.863Z,21.50
2018-09-03T03:07:26.201Z,19.97
2018-09-03T03:09:56.509Z,20.93
2018-09-03T03:12:26.892Z,19.27
2018-09-03T03:14:58.288Z,23.10
2018-09-03T03:17:29.103Z,20.87
2018-09-03T03:20:00.186Z,21.33
2018-09-03T03:22:35.705Z,23.73
2018-09-03T03:25:06.383Z,20.77
2018-09-03T03:27:36.862Z,20.00
2018-09-03T03:30:09.195Z,19.53
2018-09-03T03:32:40.377Z,19.23
2018-09-03T03:35:12.359Z,21.93
2018-09-03T03:37:49.662Z,20.27
2018-09-03T03:40:21.614Z,19.67
2018-09-03T03:42:52.834Z,20.37
2018-09-03T03:45:26.073Z,19.27
2018-09-03T03:47:57.093Z,21.67
2018-09-03T03:50:28.653Z,20.50
2018-09-03T03:52:59.837Z,21.10
2018-09-03T03:55:30.415Z,20.53
2018-09-03T03:58:00.942Z,21.50
2018-09-03T04:00:32.119Z,21.53
2018-09-03T04:03:04.561Z,21.07
2018-09-03T04:05:34.876Z,21.83
2018-09-03T04:08:05.984Z,20.20
2018-09-03T04:10:39.505Z,21.00
2018-09-03T04:13:09.846Z,21.37
2018-09-03T04:15:41.543Z,21.77
2018-09-03T04:18:12.230Z,20.43
2018-09-03T04:20:43.924Z,22.23
2018-09-03T04:23:14.477Z,20.83
2018-09-03T04:25:45.306Z,22.37
2018-09-03T04:28:17.353Z,21.10
2018-09-03T04:30:48.853Z,21.17
2018-09-03T04:33:19.761Z,23.97
2018-09-03T04:35:52.062Z,20.60
2018-09-03T04:38:22.470Z,20.47
2018-09-03T04:40:53.568Z,28.53
2018-09-03T04:43:26.459Z,24.37
2018-09-03T04:45:56.829Z,48.13
2018-09-03T04:48:27.483Z,26.53
2018-09-03T04:50:57.862Z,27.60
2018-09-03T04:53:28.447Z,35.03
2018-09-03T04:55:58.886Z,23.80
2018-09-03T04:58:30.958Z,20.60
2018-09-03T05:01:01.868Z,25.93
2018-09-03T05:03:32.328Z,38.37
2018-09-03T05:06:06.156Z,39.40
2018-09-03T05:08:36.836Z,41.13
2018-09-03T05:11:07.427Z,28.17
2018-09-03T05:13:39.469Z,21.30
2018-09-03T05:16:10.141Z,40.70
2018-09-03T05:18:40.805Z,51.67
2018-09-03T05:21:12.127Z,31.80
2018-09-03T05:23:44.423Z,22.77
2018-09-03T05:26:15.719Z,22.40
2018-09-03T05:28:48.431Z,22.30
2018-09-03T05:31:19.806Z,23.40
2018-09-03T05:33:50.907Z,23.80
2018-09-03T05:36:21.191Z,24.83
2018-09-03T05:38:51.541Z,24.10
2018-09-03T05:41:24.426Z,20.87
2018-09-03T05:43:55.510Z,24.07
2018-09-03T05:46:27.538Z,22.30
2018-09-03T05:49:04.867Z,22.83
2018-09-03T05:51:39.489Z,58.13
2018-09-03T05:54:10.451Z,55.13
2018-09-03T05:56:42.345Z,26.77
2018-09-03T05:59:13.557Z,23.30
2018-09-03T06:01:45.091Z,22.27
2018-09-03T06:04:17.287Z,22.10
2018-09-03T06:06:54.085Z,23.50
2018-09-03T06:09:25.919Z,24.33
2018-09-03T06:11:57.601Z,23.23
2018-09-03T06:14:29.975Z,30.17
2018-09-03T06:17:00.580Z,26.23
2018-09-03T06:19:32.313Z,30.10
2018-09-03T06:22:03.004Z,21.93
2018-09-03T06:24:35.918Z,23.27
2018-09-03T06:27:06.977Z,24.13
2018-09-03T06:29:38.255Z,22.67
2018-09-03T06:32:08.877Z,20.20
2018-09-03T06:34:40.458Z,20.00
2018-09-03T06:37:12.641Z,23.87
2018-09-03T06:39:45.809Z,20.00
2018-09-03T06:42:17.105Z,19.10
2018-09-03T06:44:49.085Z,18.87
2018-09-03T06:47:19.972Z,18.17
2018-09-03T06:49:56.824Z,18.90
2018-09-03T06:52:29.432Z,17.40
2018-09-03T06:54:59.895Z,16.53
2018-09-03T06:57:30.425Z,21.93
2018-09-03T07:00:01.811Z,20.07
2018-09-03T07:02:34.541Z,18.43
2018-09-03T07:05:04.988Z,18.13
2018-09-03T07:07:36.740Z,18.30
2018-09-03T07:10:09.357Z,18.83
2018-09-03T07:12:43.117Z,19.40
2018-09-03T07:15:17.921Z,18.20
2018-09-03T07:17:49.858Z,19.20
2018-09-03T07:20:20.353Z,19.40
2018-09-03T07:22:54.972Z,18.93
2018-09-03T07:25:27.185Z,20.50
2018-09-03T07:27:58.514Z,18.47
2018-09-03T07:30:30.021Z,17.60
2018-09-03T07:33:00.431Z,18.43
2018-09-03T07:35:30.862Z,20.30
2018-09-03T07:38:01.298Z,20.80
2018-09-03T07:40:31.873Z,20.07
2018-09-03T07:43:04.765Z,18.57
2018-09-03T07:45:40.221Z,18.33
2018-09-03T07:48:13.425Z,17.37
2018-09-03T07:50:45.261Z,18.53
2018-09-03T07:53:40.011Z,18.13
2018-09-03T07:56:10.510Z,21.20
2018-09-03T07:58:40.885Z,18.33
2018-09-03T08:01:16.237Z,17.47
2018-09-03T08:03:46.534Z,17.73
2018-09-03T08:06:17.574Z,16.70
2018-09-03T08:08:49.565Z,15.87
2018-09-03T08:11:20.085Z,16.83
2018-09-03T08:13:50.397Z,16.23
2018-09-03T08:16:20.920Z,16.70
2018-09-03T08:18:55.234Z,16.80
2018-09-03T08:21:25.674Z,16.13
2018-09-03T08:23:56.529Z,16.57
2018-09-03T08:26:27.216Z,17.43
2018-09-03T08:29:00.333Z,18.43
2018-09-03T08:31:31.530Z,17.03
2018-09-03T08:34:02.573Z,18.67
2018-09-03T08:36:34.015Z,16.67
2018-09-03T08:39:05.907Z,18.13
2018-09-03T08:41:36.805Z,18.10
2018-09-03T08:44:08.775Z,17.47
2018-09-03T08:46:39.106Z,18.83
2018-09-03T08:49:09.488Z,21.90
2018-09-03T08:51:39.804Z,20.93
2018-09-03T08:54:10.222Z,20.23
2018-09-03T08:56:40.952Z,19.57
2018-09-03T08:59:11.980Z,18.37
2018-09-03T09:01:42.369Z,17.80
2018-09-03T09:04:12.928Z,21.50
2018-09-03T09:06:43.306Z,19.13
2018-09-03T09:09:13.828Z,18.87
2018-09-03T09:11:44.344Z,18.63
2018-09-03T09:14:14.695Z,19.37
2018-09-03T09:16:45.154Z,18.30
2018-09-03T09:19:15.533Z,17.20
2018-09-03T09:21:45.984Z,18.80
2018-09-03T09:24:17.152Z,19.00
2018-09-03T09:26:47.445Z,17.57
2018-09-03T09:29:17.789Z,18.20
2018-09-03T09:31:48.730Z,18.83
2018-09-03T09:34:19.096Z,19.03
2018-09-03T09:36:49.428Z,18.90
2018-09-03T09:39:19.795Z,17.50
2018-09-03T09:41:50.176Z,18.67
2018-09-03T09:44:20.610Z,18.93
2018-09-03T09:46:51.029Z,18.80
2018-09-03T09:49:21.563Z,17.67
2018-09-03T09:51:52.031Z,20.40
2018-09-03T09:54:22.436Z,19.73
2018-09-03T09:56:53.921Z,18.50
2018-09-03T09:59:24.334Z,18.90
2018-09-03T10:01:54.701Z,18.70
2018-09-03T10:04:25.104Z,18.50
2018-09-03T10:06:55.447Z,19.60
2018-09-03T10:09:25.727Z,19.60
2018-09-03T10:11:56.121Z,17.83
2018-09-03T10:14:26.457Z,19.87
2018-09-03T10:16:57.468Z,19.80
2018-09-03T10:19:28.381Z,19.23
2018-09-03T10:21:58.833Z,20.03
2018-09-03T10:24:29.177Z,18.33
2018-09-03T10:26:59.502Z,18.57
2018-09-03T10:29:29.930Z,18.90
2018-09-03T10:32:00.355Z,19.43
2018-09-03T10:34:30.744Z,19.63
2018-09-03T10:37:01.202Z,19.67
2018-09-03T10:39:59.158Z,18.63
2018-09-03T10:42:29.576Z,19.03
2018-09-03T10:45:00.044Z,20.23
2018-09-03T10:47:30.442Z,18.77
2018-09-03T10:50:00.694Z,19.00
2018-09-03T10:52:31.031Z,17.63
2018-09-03T10:55:01.396Z,19.40
2018-09-03T10:57:31.740Z,18.03
2018-09-03T11:00:11.058Z,19.80
2018-09-03T11:02:41.407Z,18.93
2018-09-03T11:05:11.876Z,19.43
2018-09-03T11:07:42.128Z,19.50
2018-09-03T11:10:12.445Z,20.07
2018-09-03T11:12:43.794Z,19.73
2018-09-03T11:15:14.142Z,19.43
2018-09-03T11:17:45.127Z,19.73
2018-09-03T11:20:20.557Z,18.63
2018-09-03T11:22:51.007Z,18.57
2018-09-03T11:25:21.902Z,17.60
2018-09-03T11:27:54.028Z,17.93
2018-09-03T11:30:25.128Z,16.60
2018-09-03T11:32:58.589Z,16.47
2018-09-03T11:35:30.677Z,17.40
2018-09-03T11:38:01.948Z,17.90
2018-09-03T11:40:33.160Z,17.23
2018-09-03T11:43:03.568Z,18.57
2018-09-03T11:45:33.978Z,17.37
2018-09-03T11:48:05.008Z,18.43
2018-09-03T11:50:35.361Z,17.90
2018-09-03T11:53:06.457Z,18.13
2018-09-03T11:55:36.776Z,18.57
2018-09-03T11:58:07.265Z,17.17
2018-09-03T12:00:37.711Z,18.73
2018-09-03T12:03:09.510Z,17.83
2018-09-03T12:05:39.861Z,17.60
2018-09-03T12:08:10.796Z,16.40
2018-09-03T12:10:44.550Z,16.00
2018-09-03T12:13:15.299Z,15.00
2018-09-03T12:15:55.112Z,16.13
2018-09-03T12:18:25.624Z,17.03
2018-09-03T12:20:57.980Z,17.30
2018-09-03T12:23:28.305Z,15.83
2018-09-03T12:25:58.650Z,16.80
2018-09-03T12:28:29.079Z,16.67
2018-09-03T12:30:59.807Z,17.23
2018-09-03T12:33:30.732Z,15.60
2018-09-03T12:36:01.085Z,16.47
2018-09-03T12:38:32.545Z,15.90
2018-09-03T12:41:03.795Z,15.73
2018-09-03T12:43:35.477Z,16.27
2018-09-03T12:46:07.106Z,16.50
2018-09-03T12:48:37.460Z,17.30
2018-09-03T12:51:08.015Z,16.03
2018-09-03T12:53:38.352Z,16.30
2018-09-03T12:56:08.845Z,16.43
2018-09-03T12:58:39.302Z,16.83
2018-09-03T13:01:09.597Z,16.47
2018-09-03T13:03:39.917Z,18.33
2018-09-03T13:06:10.402Z,17.43
2018-09-03T13:08:40.781Z,16.80
2018-09-03T13:11:11.490Z,17.70
2018-09-03T13:13:41.815Z,16.70
2018-09-03T13:16:12.372Z,16.70
2018-09-03T13:18:42.800Z,17.47
2018-09-03T13:21:13.177Z,18.37
2018-09-03T13:23:44.789Z,17.40
2018-09-03T13:26:17.485Z,18.33
2018-09-03T13:28:49.556Z,17.67
2018-09-03T13:31:21.596Z,17.43
2018-09-03T13:33:55.911Z,16.53
2018-09-03T13:36:26.255Z,16.63
2018-09-03T13:38:59.019Z,16.60
2018-09-03T13:41:29.472Z,15.80
2018-09-03T13:44:00.900Z,17.83
2018-09-03T13:46:31.417Z,17.70
2018-09-03T13:49:01.810Z,17.60
2018-09-03T13:51:32.262Z,16.97
2018-09-03T13:54:02.989Z,16.47
2018-09-03T13:56:33.494Z,14.63
2018-09-03T13:59:04.164Z,18.30
2018-09-03T14:01:34.522Z,17.17
2018-09-03T14:04:06.082Z,16.53
2018-09-03T14:06:37.217Z,18.17
2018-09-03T14:09:09.458Z,16.87
2018-09-03T14:11:41.898Z,16.70
2018-09-03T14:14:12.684Z,17.23
2018-09-03T14:16:43.245Z,16.37
2018-09-03T14:19:13.851Z,16.43
2018-09-03T14:21:44.249Z,15.77
2018-09-03T14:24:14.863Z,16.30
2018-09-03T14:26:45.166Z,17.80
2018-09-03T14:29:15.907Z,15.10
2018-09-03T14:31:53.784Z,16.07
2018-09-03T14:34:24.537Z,16.20
2018-09-03T14:36:54.972Z,14.00
2018-09-03T14:39:25.601Z,15.70
2018-09-03T14:41:55.892Z,15.23
2018-09-03T14:44:26.654Z,15.20
2018-09-03T14:46:57.141Z,15.07
2018-09-03T14:49:27.815Z,14.37
2018-09-03T14:51:58.153Z,17.50
2018-09-03T14:54:28.762Z,17.27
2018-09-03T14:56:59.953Z,14.97
2018-09-03T14:59:30.521Z,15.03
2018-09-03T15:02:00.859Z,15.40
2018-09-03T15:04:31.559Z,18.77
2018-09-03T15:07:01.892Z,15.83
2018-09-03T15:09:32.435Z,14.70
2018-09-03T15:12:02.761Z,16.10
2018-09-03T15:14:33.452Z,14.60
2018-09-03T15:17:04.739Z,17.10
2018-09-03T15:19:36.121Z,16.53
2018-09-03T15:22:06.461Z,15.37
2018-09-03T15:24:36.805Z,15.40
2018-09-03T15:27:07.460Z,16.07
2018-09-03T15:29:37.801Z,19.17
2018-09-03T15:32:08.736Z,14.63
2018-09-03T15:34:39.728Z,15.80
2018-09-03T15:37:10.882Z,14.37
2018-09-03T15:39:41.257Z,15.17
2018-09-03T15:42:12.001Z,14.80
2018-09-03T15:44:44.597Z,15.10
2018-09-03T15:55:19.800Z,14.47
2018-09-03T15:57:51.659Z,14.17
2018-09-03T16:00:30.210Z,14.83
2018-09-03T16:03:00.571Z,15.40
2018-09-03T16:05:32.125Z,14.03
2018-09-03T16:08:02.992Z,15.23
2018-09-03T16:10:36.381Z,21.67
2018-09-03T16:13:10.877Z,16.97
2018-09-03T16:15:41.233Z,15.70
2018-09-03T16:18:18.478Z,14.70
2018-09-03T16:20:50.998Z,16.40
2018-09-03T16:23:30.822Z,16.37
2018-09-03T16:26:03.526Z,15.57
2018-09-03T16:28:34.454Z,16.63
2018-09-03T16:31:05.183Z,14.67
2018-09-03T16:33:36.170Z,15.80
2018-09-03T16:36:06.944Z,14.77
2018-09-03T16:38:39.615Z,15.43
2018-09-03T16:41:10.773Z,17.30
2018-09-03T16:43:41.137Z,28.57
2018-09-03T16:46:11.787Z,16.03
2018-09-03T16:48:42.419Z,16.87
2018-09-03T16:51:12.987Z,15.43
2018-09-03T16:53:52.221Z,40.53
2018-09-03T16:56:27.898Z,21.73
2018-09-03T16:58:59.224Z,20.80
2018-09-03T17:01:31.668Z,17.60
2018-09-03T17:04:01.956Z,17.43
2018-09-03T17:06:32.345Z,16.87
2018-09-03T17:09:02.965Z,38.17
2018-09-03T17:11:33.333Z,20.57
2018-09-03T17:14:04.047Z,16.23
2018-09-03T17:16:35.720Z,15.93
2018-09-03T17:19:07.461Z,16.27
2018-09-03T17:21:51.178Z,16.10
2018-09-03T17:24:28.391Z,15.77
2018-09-03T17:27:01.358Z,17.20
2018-09-03T17:29:39.573Z,18.70
2018-09-03T17:32:12.185Z,22.13
2018-09-03T17:34:43.593Z,16.17
2018-09-03T17:37:17.699Z,21.37
2018-09-03T17:39:49.888Z,43.17
2018-09-03T17:42:22.062Z,19.10
2018-09-03T17:44:58.940Z,20.97
2018-09-03T17:47:29.998Z,18.83
2018-09-03T17:50:02.176Z,18.90
2018-09-03T17:52:34.803Z,19.37
2018-09-03T17:55:10.030Z,20.70
2018-09-03T17:57:42.543Z,19.53
2018-09-03T18:00:14.129Z,20.27
2018-09-03T18:02:44.617Z,25.53
2018-09-03T18:05:16.836Z,23.87
2018-09-03T18:07:49.813Z,19.23
2018-09-03T18:10:26.669Z,20.57
2018-09-03T18:13:06.819Z,16.80
2018-09-03T18:15:39.719Z,14.73
2018-09-03T18:22:25.199Z,19.73
2018-09-03T18:25:25.998Z,24.77
2018-09-03T19:13:05.485Z,14.93
2018-09-03T19:29:54.138Z,13.87
2018-09-03T19:32:34.575Z,13.83
2018-09-03T19:35:13.959Z,14.23
2018-09-03T19:40:41.157Z,48.97
2018-09-03T19:43:18.685Z,27.40
2018-09-03T19:45:56.772Z,23.30
2018-09-03T19:49:20.372Z,13.70
2018-09-03T19:52:01.264Z,14.13
2018-09-03T19:54:42.967Z,12.40
2018-09-03T19:57:48.441Z,13.20
2018-09-03T20:00:29.207Z,12.37
2018-09-03T20:03:02.629Z,12.10
2018-09-03T20:05:38.417Z,12.60
2018-09-03T20:08:10.405Z,13.13
2018-09-03T20:11:17.926Z,12.83
2018-09-03T20:13:54.569Z,13.83
2018-09-03T20:16:31.868Z,12.60
2018-09-03T20:25:25.629Z,12.27
2018-09-03T20:28:04.729Z,10.80
2018-09-03T20:30:44.917Z,12.40
2018-09-03T20:33:17.170Z,10.70
2018-09-03T20:35:51.009Z,13.17
2018-09-03T20:42:41.376Z,11.63
2018-09-03T20:45:15.982Z,12.90
2018-09-03T20:48:01.089Z,12.63
2018-09-03T20:50:50.049Z,11.53
2018-09-03T20:53:31.189Z,12.17
2018-09-03T20:56:04.942Z,11.53
2018-09-03T20:58:37.194Z,11.57
2018-09-03T21:05:35.661Z,10.80
2018-09-03T21:08:13.966Z,11.30
2018-09-03T21:10:49.083Z,10.07
2018-09-03T21:13:23.133Z,13.63
2018-09-03T21:15:59.465Z,11.30
2018-09-03T21:18:33.996Z,11.90
2018-09-03T21:21:09.735Z,11.30
2018-09-03T21:23:43.150Z,11.30
2018-09-03T21:26:15.949Z,11.40
2018-09-03T21:28:50.457Z,12.23
2018-09-03T21:31:22.910Z,12.10
2018-09-03T21:33:54.589Z,12.13
2018-09-03T21:36:30.136Z,12.33
2018-09-03T21:39:03.586Z,12.73
2018-09-03T21:41:37.118Z,12.20
2018-09-03T21:44:13.414Z,12.30
2018-09-03T21:46:46.394Z,14.10
2018-09-03T21:49:57.620Z,14.07
2018-09-03T21:52:51.604Z,14.77
2018-09-03T21:55:23.881Z,11.63
2018-09-03T21:57:55.897Z,11.83
2018-09-03T22:00:28.853Z,12.47
2018-09-03T22:03:02.905Z,18.67
2018-09-03T22:05:44.794Z,14.63
2018-09-03T22:08:17.652Z,12.13
2018-09-03T22:10:49.634Z,11.47
2018-09-03T22:13:20.981Z,11.20
2018-09-03T22:15:55.475Z,11.20
2018-09-03T22:18:27.477Z,10.80
2018-09-03T22:21:01.693Z,11.87
2018-09-03T22:23:38.942Z,12.10
2018-09-03T22:26:12.408Z,10.03
2018-09-03T22:28:46.073Z,12.30
2018-09-03T22:31:18.545Z,11.30
2018-09-03T22:33:50.420Z,12.87
2018-09-03T22:36:27.802Z,11.17
2018-09-03T22:39:01.666Z,11.20
2018-09-03T22:41:35.378Z,11.03
2018-09-03T22:44:13.626Z,10.23
2018-09-03T22:46:44.886Z,11.23
2018-09-03T22:49:20.923Z,10.07
2018-09-03T22:51:55.099Z,12.87
2018-09-03T22:54:28.006Z,11.80
2018-09-03T22:57:00.361Z,10.70
2018-09-03T22:59:32.157Z,10.53
2018-09-03T23:02:05.185Z,9.40
2018-09-03T23:04:35.857Z,10.33
2018-09-03T23:07:09.241Z,12.20
2018-09-03T23:09:42.546Z,11.80
2018-09-03T23:12:15.537Z,11.10
2018-09-03T23:14:53.029Z,13.50
2018-09-03T23:17:25.025Z,10.63
2018-09-03T23:19:58.841Z,9.50
2018-09-03T23:22:31.089Z,10.30
2018-09-03T23:25:03.663Z,9.77
2018-09-03T23:27:38.257Z,9.37
2018-09-03T23:30:10.729Z,9.87
2018-09-03T23:32:43.539Z,11.60
2018-09-03T23:35:16.452Z,9.27
2018-09-03T23:37:53.320Z,8.70
2018-09-03T23:40:29.257Z,9.60
2018-09-03T23:43:02.190Z,10.00
2018-09-03T23:45:34.170Z,8.30
2018-09-03T23:48:05.048Z,9.07
2018-09-03T23:50:37.244Z,10.33
2018-09-03T23:53:09.837Z,9.17
2018-09-03T23:55:42.735Z,9.07
2018-09-03T23:58:16.199Z,9.90
